Terminal Aerodrome Forecast
Issued by NWS

Home | Current Version | Previous Version | Text Only | Print | Product List | Glossary On
Versions: 1 2 3 4 5 6 7 8 9 10 11 12 13 14 15 16 17 18 19 20
000
FTAK31 PANC 161738
TAFAVD
TAF
PAVD 161738Z 1618/1718 VRB04KT P6SM VCSH FEW004 SCT060 BKN120
      TEMPO 1618/1622 -SHRA BKN050
     FM170000 VRB04KT P6SM SCT060 BKN120
      AMD LTD TO CLD VIS AND WIND=

USA.gov is the U.S. government's official web portal to all federal, state and local government web resources and services.